Time;durP1;ratioP1;P1;durP2;ratioP2;P2;SDS_P1;SDS_P2;PMS_P1;PMS_P2;Temp;Humidity;BMP_temperature;BMP_pressure;BME280_temperature;BME280_humidity;BME280_pressure;Samples;Min_cycle;Max_cycle;Signal;HPM_P1;HPM_P2
2021/08/29 00:00:30;;;;;;;3.65;2.55;;;;;;;;;;5019522;28;20063;-65
2021/08/29 00:02:55;;;;;;;5.60;2.63;;;;;;;;;;5021155;28;20358;-64
2021/08/29 00:05:20;;;;;;;4.78;2.85;;;;;;;;;;5018615;28;20566;-65
2021/08/29 00:07:45;;;;;;;4.72;2.75;;;;;;;;;;5022604;28;20059;-65
2021/08/29 00:10:11;;;;;;;3.65;2.30;;;;;;;;;;5019448;28;20461;-65
2021/08/29 00:12:36;;;;;;;3.50;2.50;;;;;;;;;;5022764;28;20025;-65
2021/08/29 00:15:01;;;;;;;5.70;2.58;;;;;;;;;;5024416;28;20036;-65
2021/08/29 00:17:26;;;;;;;3.47;2.55;;;;;;;;;;5020474;28;20480;-66
2021/08/29 00:19:52;;;;;;;7.65;2.75;;;;;;;;;;5023283;28;20013;-65
2021/08/29 00:22:17;;;;;;;3.47;2.35;;;;;;;;;;5020072;28;20029;-65
2021/08/29 00:24:43;;;;;;;4.30;2.75;;;;;;;;;;5018128;28;20456;-64
2021/08/29 00:27:08;;;;;;;5.15;3.10;;;;;;;;;;5022595;28;20030;-66
2021/08/29 00:29:33;;;;;;;5.75;2.60;;;;;;;;;;5027952;28;20116;-64
2021/08/29 00:31:58;;;;;;;4.57;2.63;;;;;;;;;;5023556;28;20017;-65
2021/08/29 00:34:23;;;;;;;3.60;2.42;;;;;;;;;;5021486;28;20374;-65
2021/08/29 00:36:48;;;;;;;4.95;2.65;;;;;;;;;;5023387;28;20130;-65
2021/08/29 00:39:14;;;;;;;7.25;2.70;;;;;;;;;;5014698;28;20018;-65
2021/08/29 00:41:40;;;;;;;5.72;2.90;;;;;;;;;;5027030;28;20060;-64
2021/08/29 00:44:05;;;;;;;3.78;2.47;;;;;;;;;;5024015;28;20133;-65
2021/08/29 00:46:30;;;;;;;4.63;2.38;;;;;;;;;;5018399;28;20091;-65
2021/08/29 00:48:56;;;;;;;4.93;2.60;;;;;;;;;;5021355;28;20393;-65
2021/08/29 00:51:21;;;;;;;5.07;2.45;;;;;;;;;;5018812;28;20018;-64
2021/08/29 00:53:47;;;;;;;6.97;2.65;;;;;;;;;;5028113;28;20030;-65
2021/08/29 00:56:12;;;;;;;3.63;2.28;;;;;;;;;;5027133;28;20033;-64
2021/08/29 00:58:38;;;;;;;3.55;2.42;;;;;;;;;;5024608;28;20025;-65
2021/08/29 01:01:03;;;;;;;4.50;2.70;;;;;;;;;;5028078;28;20041;-65
2021/08/29 01:03:28;;;;;;;3.85;2.67;;;;;;;;;;5032288;28;20044;-65
2021/08/29 01:06:13;;;;;;;4.18;2.67;;;;;;;;;;5029739;28;20034;-65
2021/08/29 01:08:40;;;;;;;3.72;2.58;;;;;;;;;;5029601;28;20029;-66
2021/08/29 01:11:15;;;;;;;6.07;2.63;;;;;;;;;;5034591;28;20029;-65
2021/08/29 01:13:44;;;;;;;3.97;2.20;;;;;;;;;;5027187;28;20033;-65
2021/08/29 01:16:11;;;;;;;4.47;2.40;;;;;;;;;;5026979;28;20485;-65
2021/08/29 01:18:39;;;;;;;4.53;2.50;;;;;;;;;;5032055;28;20025;-64
2021/08/29 01:21:07;;;;;;;4.80;2.50;;;;;;;;;;5031554;28;20033;-64
2021/08/29 01:23:33;;;;;;;3.70;2.50;;;;;;;;;;5029611;28;20017;-65
2021/08/29 01:26:19;;;;;;;7.93;3.10;;;;;;;;;;5029161;28;20029;-65
2021/08/29 01:28:47;;;;;;;3.63;2.78;;;;;;;;;;5031103;28;20086;-66
2021/08/29 01:31:12;;;;;;;3.35;2.47;;;;;;;;;;5028417;28;20113;-65
2021/08/29 01:33:38;;;;;;;3.35;2.40;;;;;;;;;;5025754;28;20121;-66
2021/08/29 01:36:03;;;;;;;3.28;2.03;;;;;;;;;;5032516;28;20091;-65
2021/08/29 01:38:28;;;;;;;3.30;2.05;;;;;;;;;;5031776;28;20052;-64
2021/08/29 01:40:54;;;;;;;4.88;2.15;;;;;;;;;;5026609;28;20409;-65
2021/08/29 01:43:19;;;;;;;4.07;2.08;;;;;;;;;;5029462;28;20068;-65
2021/08/29 01:45:44;;;;;;;4.13;2.15;;;;;;;;;;5029024;28;20065;-65
2021/08/29 01:48:11;;;;;;;3.58;2.13;;;;;;;;;;5021791;28;20030;-64
2021/08/29 01:50:36;;;;;;;3.70;2.25;;;;;;;;;;5025015;28;20032;-64
2021/08/29 01:53:01;;;;;;;2.67;2.05;;;;;;;;;;5030904;28;20393;-65
2021/08/29 01:55:26;;;;;;;3.08;2.22;;;;;;;;;;5028897;28;20048;-65
2021/08/29 01:57:51;;;;;;;2.67;2.00;;;;;;;;;;5032134;28;20021;-64
2021/08/29 02:00:17;;;;;;;4.32;2.03;;;;;;;;;;5029563;28;20487;-64
2021/08/29 02:02:43;;;;;;;4.90;2.03;;;;;;;;;;5026392;28;20025;-65
2021/08/29 02:05:08;;;;;;;3.22;2.15;;;;;;;;;;5032655;28;20025;-65
2021/08/29 02:07:37;;;;;;;3.15;1.70;;;;;;;;;;5025458;28;20027;-66
2021/08/29 02:10:06;;;;;;;2.78;1.73;;;;;;;;;;5020814;28;20112;-66
2021/08/29 02:12:31;;;;;;;;;;;;;;;;;;5028690;28;20075;-67
2021/08/29 02:15:01;;;;;;;3.50;2.25;;;;;;;;;;5023776;28;19905;-65
2021/08/29 02:17:27;;;;;;;3.00;2.28;;;;;;;;;;5023623;28;20034;-65
2021/08/29 02:19:52;;;;;;;3.95;1.90;;;;;;;;;;5029283;28;20033;-65
2021/08/29 02:22:18;;;;;;;4.70;2.60;;;;;;;;;;5021636;28;20026;-65
2021/08/29 02:24:43;;;;;;;3.92;2.50;;;;;;;;;;5028022;28;20041;-64
2021/08/29 02:27:11;;;;;;;5.10;2.20;;;;;;;;;;5028520;28;20068;-65
2021/08/29 02:29:37;;;;;;;3.42;2.10;;;;;;;;;;5030865;28;20505;-65
2021/08/29 02:32:03;;;;;;;2.90;2.00;;;;;;;;;;5028418;28;20068;-65
2021/08/29 02:34:29;;;;;;;3.60;2.30;;;;;;;;;;5024922;28;20033;-65
2021/08/29 02:36:55;;;;;;;3.95;2.03;;;;;;;;;;5023113;28;20042;-64
2021/08/29 02:39:21;;;;;;;4.13;2.10;;;;;;;;;;5029624;28;20466;-64
2021/08/29 02:41:49;;;;;;;3.53;2.15;;;;;;;;;;5023956;28;20037;-65
2021/08/29 02:44:14;;;;;;;4.20;2.25;;;;;;;;;;5028828;28;20025;-65
2021/08/29 02:46:39;;;;;;;3.05;2.05;;;;;;;;;;5028231;28;20052;-65
2021/08/29 02:49:05;;;;;;;4.78;2.35;;;;;;;;;;5025923;28;20092;-65
2021/08/29 02:51:30;;;;;;;5.07;2.40;;;;;;;;;;5029662;28;20302;-64
2021/08/29 02:53:57;;;;;;;5.78;2.47;;;;;;;;;;5020310;28;20071;-64
2021/08/29 02:56:22;;;;;;;3.95;2.47;;;;;;;;;;5026313;28;20470;-64
2021/08/29 02:58:48;;;;;;;3.42;2.30;;;;;;;;;;5029227;28;20029;-65
2021/08/29 03:01:13;;;;;;;3.83;2.22;;;;;;;;;;5023700;28;20442;-65
2021/08/29 03:03:38;;;;;;;5.72;2.38;;;;;;;;;;5019771;28;20449;-64
2021/08/29 03:06:04;;;;;;;5.07;2.72;;;;;;;;;;5017191;28;20030;-64
2021/08/29 03:08:30;;;;;;;4.25;2.45;;;;;;;;;;5026125;28;20026;-64
2021/08/29 03:10:55;;;;;;;6.68;2.88;;;;;;;;;;5024239;28;20434;-64
2021/08/29 03:13:21;;;;;;;3.90;2.60;;;;;;;;;;5026528;28;20071;-64
2021/08/29 03:15:46;;;;;;;4.15;2.78;;;;;;;;;;5024749;28;20132;-65
2021/08/29 03:18:11;;;;;;;3.50;2.47;;;;;;;;;;5027194;28;20532;-65
2021/08/29 03:20:37;;;;;;;4.50;2.88;;;;;;;;;;5026748;28;20029;-65
2021/08/29 03:23:02;;;;;;;3.97;2.45;;;;;;;;;;5026077;28;20061;-64
2021/08/29 03:25:28;;;;;;;3.80;2.60;;;;;;;;;;5022649;28;20033;-65
2021/08/29 03:27:53;;;;;;;4.05;2.65;;;;;;;;;;5027970;28;20067;-65
2021/08/29 03:30:19;;;;;;;4.55;2.55;;;;;;;;;;5029837;28;20049;-64
2021/08/29 03:32:44;;;;;;;6.82;2.70;;;;;;;;;;5024527;28;20022;-64
2021/08/29 03:35:09;;;;;;;4.75;2.83;;;;;;;;;;5023224;28;20529;-67
2021/08/29 03:37:35;;;;;;;5.05;3.03;;;;;;;;;;5021969;28;20040;-65
2021/08/29 03:40:01;;;;;;;3.97;2.88;;;;;;;;;;5028651;28;20505;-65
2021/08/29 03:42:26;;;;;;;5.43;2.50;;;;;;;;;;5025603;28;20044;-65
2021/08/29 03:44:52;;;;;;;4.35;2.72;;;;;;;;;;5027824;28;20021;-64
2021/08/29 03:47:17;;;;;;;4.20;2.58;;;;;;;;;;5021967;28;20029;-65
2021/08/29 03:49:42;;;;;;;7.05;3.50;;;;;;;;;;5020307;28;20021;-66
2021/08/29 03:52:08;;;;;;;6.35;3.55;;;;;;;;;;5031878;28;20388;-65
2021/08/29 03:54:33;;;;;;;8.20;3.55;;;;;;;;;;5028356;28;20029;-65
2021/08/29 03:56:59;;;;;;;4.60;3.08;;;;;;;;;;5019312;28;20025;-65
2021/08/29 03:59:24;;;;;;;9.88;3.38;;;;;;;;;;5022587;28;20013;-65
2021/08/29 04:01:49;;;;;;;5.30;3.33;;;;;;;;;;5020193;28;20472;-66
2021/08/29 04:04:14;;;;;;;5.90;3.13;;;;;;;;;;5028805;28;20029;-65
2021/08/29 04:06:40;;;;;;;6.47;3.65;;;;;;;;;;5019758;28;20033;-66
2021/08/29 04:09:06;;;;;;;5.60;3.80;;;;;;;;;;5021091;28;20032;-65
2021/08/29 04:11:32;;;;;;;7.45;3.55;;;;;;;;;;5027404;28;20075;-65
2021/08/29 04:13:57;;;;;;;5.88;3.38;;;;;;;;;;5028180;28;20024;-65
2021/08/29 04:16:23;;;;;;;6.88;3.80;;;;;;;;;;5025161;28;20048;-64
2021/08/29 04:18:48;;;;;;;6.53;4.18;;;;;;;;;;5027804;28;20112;-65
2021/08/29 04:21:18;;;;;;;8.57;3.60;;;;;;;;;;5026201;28;20125;-65
2021/08/29 04:23:43;;;;;;;4.82;3.38;;;;;;;;;;5025329;28;20028;-65
2021/08/29 04:26:09;;;;;;;7.07;4.32;;;;;;;;;;5026796;28;20037;-65
2021/08/29 04:28:34;;;;;;;9.43;4.68;;;;;;;;;;5024907;28;20348;-65
2021/08/29 04:31:00;;;;;;;7.13;4.15;;;;;;;;;;5017855;28;20013;-65
2021/08/29 04:33:26;;;;;;;7.15;3.72;;;;;;;;;;5027617;28;20056;-65
2021/08/29 04:35:52;;;;;;;9.27;4.68;;;;;;;;;;5018805;28;20136;-66
2021/08/29 04:38:17;;;;;;;6.90;4.63;;;;;;;;;;5026700;28;20390;-64
2021/08/29 04:40:43;;;;;;;7.13;4.28;;;;;;;;;;5025473;28;20080;-64
2021/08/29 04:43:09;;;;;;;6.30;4.18;;;;;;;;;;5023511;28;20021;-64
2021/08/29 04:45:34;;;;;;;9.38;5.05;;;;;;;;;;5021696;28;20071;-63
2021/08/29 04:47:59;;;;;;;6.05;4.30;;;;;;;;;;5027420;28;20299;-65
2021/08/29 04:50:24;;;;;;;7.35;4.10;;;;;;;;;;5028392;28;20034;-65
2021/08/29 04:52:49;;;;;;;7.50;4.60;;;;;;;;;;5028277;28;20033;-64
2021/08/29 04:55:15;;;;;;;8.75;4.70;;;;;;;;;;5025343;28;20034;-65
2021/08/29 04:57:40;;;;;;;8.48;5.03;;;;;;;;;;5024931;28;20037;-64
2021/08/29 05:00:05;;;;;;;8.90;4.97;;;;;;;;;;5022637;28;20049;-65
2021/08/29 05:02:30;;;;;;;7.93;4.95;;;;;;;;;;5022621;28;20029;-65
2021/08/29 05:04:55;;;;;;;8.25;4.63;;;;;;;;;;5017741;28;20018;-65
2021/08/29 05:07:21;;;;;;;9.18;4.97;;;;;;;;;;5027591;28;20501;-64
2021/08/29 05:09:46;;;;;;;7.85;5.05;;;;;;;;;;5022239;28;20028;-64
2021/08/29 05:12:11;;;;;;;8.73;5.57;;;;;;;;;;5027882;28;20595;-65
2021/08/29 05:14:36;;;;;;;9.23;5.50;;;;;;;;;;5023482;28;20059;-65
2021/08/29 05:17:01;;;;;;;8.60;5.30;;;;;;;;;;5022239;28;20041;-65
2021/08/29 05:19:26;;;;;;;10.77;5.68;;;;;;;;;;5021818;28;20026;-64
2021/08/29 05:21:52;;;;;;;11.30;5.78;;;;;;;;;;5025066;28;20068;-64
2021/08/29 05:24:17;;;;;;;12.23;6.70;;;;;;;;;;5024007;28;20031;-64
2021/08/29 05:26:42;;;;;;;11.95;6.00;;;;;;;;;;5025818;28;20165;-65
2021/08/29 05:29:07;;;;;;;10.52;5.63;;;;;;;;;;5022538;28;20072;-65
2021/08/29 05:31:32;;;;;;;13.68;6.03;;;;;;;;;;5021764;28;20120;-65
2021/08/29 05:33:58;;;;;;;13.05;6.57;;;;;;;;;;5017487;28;20021;-65
2021/08/29 05:36:23;;;;;;;9.68;5.80;;;;;;;;;;5028358;28;20065;-66
2021/08/29 05:38:48;;;;;;;8.65;5.72;;;;;;;;;;5027619;28;20025;-65
2021/08/29 05:41:13;;;;;;;16.48;7.28;;;;;;;;;;5019475;28;20148;-65
2021/08/29 05:43:38;;;;;;;12.98;7.28;;;;;;;;;;5026589;28;20017;-64
2021/08/29 05:46:04;;;;;;;13.65;7.43;;;;;;;;;;5021285;28;20034;-65
2021/08/29 05:48:29;;;;;;;12.68;7.20;;;;;;;;;;5028154;28;20112;-65
2021/08/29 05:50:54;;;;;;;11.40;7.25;;;;;;;;;;5030013;28;20822;-65
2021/08/29 05:53:19;;;;;;;11.18;6.50;;;;;;;;;;5021984;28;20461;-65
2021/08/29 05:55:44;;;;;;;13.00;7.93;;;;;;;;;;5028371;28;20049;-65
2021/08/29 05:58:09;;;;;;;11.30;6.93;;;;;;;;;;5025989;28;20040;-65
2021/08/29 06:00:36;;;;;;;13.20;6.93;;;;;;;;;;5026024;28;20305;-65
2021/08/29 06:03:01;;;;;;;13.98;7.53;;;;;;;;;;5021184;28;20025;-64
2021/08/29 06:05:27;;;;;;;10.98;7.18;;;;;;;;;;5019114;28;20373;-66
2021/08/29 06:07:52;;;;;;;18.70;8.20;;;;;;;;;;5023740;28;20038;-65
2021/08/29 06:10:18;;;;;;;15.10;8.07;;;;;;;;;;5022071;28;20032;-64
2021/08/29 06:12:43;;;;;;;13.45;7.13;;;;;;;;;;5024167;28;20025;-64
2021/08/29 06:15:08;;;;;;;12.25;7.00;;;;;;;;;;5019655;28;20022;-65
2021/08/29 06:17:33;;;;;;;13.05;7.22;;;;;;;;;;5020662;28;20061;-66
2021/08/29 06:19:59;;;;;;;12.82;6.90;;;;;;;;;;5021346;28;20100;-65
2021/08/29 06:22:24;;;;;;;12.45;7.18;;;;;;;;;;5023558;28;20109;-65
2021/08/29 06:24:49;;;;;;;10.68;6.57;;;;;;;;;;5022843;28;20388;-65
2021/08/29 06:27:14;;;;;;;12.77;6.70;;;;;;;;;;5025994;28;20083;-64
2021/08/29 06:29:39;;;;;;;13.27;7.30;;;;;;;;;;5020615;28;20040;-65
2021/08/29 06:32:05;;;;;;;12.30;7.30;;;;;;;;;;5023669;28;20104;-65
2021/08/29 06:34:30;;;;;;;14.52;7.70;;;;;;;;;;5020233;28;20275;-65
2021/08/29 06:36:55;;;;;;;11.77;6.90;;;;;;;;;;5020353;28;20092;-65
2021/08/29 06:39:20;;;;;;;18.55;7.53;;;;;;;;;;5023835;28;20346;-64
2021/08/29 06:41:46;;;;;;;12.13;6.68;;;;;;;;;;5016898;28;20531;-65
2021/08/29 06:44:11;;;;;;;9.98;6.78;;;;;;;;;;5013878;28;20037;-65
2021/08/29 06:46:36;;;;;;;12.98;8.25;;;;;;;;;;5017455;28;20068;-65
2021/08/29 06:49:01;;;;;;;11.65;6.63;;;;;;;;;;5018539;28;20528;-65
2021/08/29 06:51:26;;;;;;;14.52;8.07;;;;;;;;;;5022163;28;20045;-66
2021/08/29 06:53:51;;;;;;;12.60;7.60;;;;;;;;;;5023171;28;20013;-65
2021/08/29 06:56:16;;;;;;;13.52;8.50;;;;;;;;;;5019026;28;20175;-65
2021/08/29 06:58:42;;;;;;;12.88;7.82;;;;;;;;;;5021970;28;20539;-65
2021/08/29 07:01:07;;;;;;;13.93;6.95;;;;;;;;;;5018083;28;20116;-64
2021/08/29 07:03:32;;;;;;;13.80;7.78;;;;;;;;;;5027675;28;20144;-64
2021/08/29 07:05:57;;;;;;;12.55;7.30;;;;;;;;;;5019155;28;20097;-65
2021/08/29 07:08:22;;;;;;;16.35;7.13;;;;;;;;;;5019965;28;20395;-64
2021/08/29 07:10:48;;;;;;;10.65;6.38;;;;;;;;;;5015855;28;20069;-65
2021/08/29 07:13:13;;;;;;;10.43;6.47;;;;;;;;;;5028150;28;20131;-65
2021/08/29 07:15:38;;;;;;;10.73;6.60;;;;;;;;;;5020165;28;20303;-64
2021/08/29 07:18:03;;;;;;;13.90;6.88;;;;;;;;;;5020303;28;20040;-65
2021/08/29 07:20:28;;;;;;;11.23;7.07;;;;;;;;;;5019755;28;20033;-66
2021/08/29 07:22:53;;;;;;;11.38;6.63;;;;;;;;;;5024196;28;20021;-65
2021/08/29 07:25:19;;;;;;;10.23;5.97;;;;;;;;;;5023155;28;20033;-65
2021/08/29 07:27:44;;;;;;;11.52;6.22;;;;;;;;;;5027232;28;20106;-66
2021/08/29 07:30:09;;;;;;;8.63;5.53;;;;;;;;;;5022386;28;20453;-64
2021/08/29 07:32:34;;;;;;;9.23;5.93;;;;;;;;;;5028731;28;20037;-65
2021/08/29 07:34:59;;;;;;;8.70;5.27;;;;;;;;;;5020758;28;20017;-65
2021/08/29 07:37:25;;;;;;;7.68;4.68;;;;;;;;;;5022000;28;20324;-65
2021/08/29 07:39:50;;;;;;;8.50;4.85;;;;;;;;;;5025714;28;20118;-65
2021/08/29 07:42:16;;;;;;;8.43;4.30;;;;;;;;;;5023699;28;20068;-65
2021/08/29 07:44:41;;;;;;;6.53;4.40;;;;;;;;;;5020669;28;20129;-65
2021/08/29 07:47:06;;;;;;;8.20;4.28;;;;;;;;;;5021625;28;20023;-65
2021/08/29 07:49:31;;;;;;;5.47;3.90;;;;;;;;;;5021428;28;20528;-66
2021/08/29 07:51:56;;;;;;;5.43;3.57;;;;;;;;;;5030123;28;20036;-65
2021/08/29 07:54:21;;;;;;;5.85;3.55;;;;;;;;;;5015795;28;20281;-65
2021/08/29 07:56:47;;;;;;;4.80;3.15;;;;;;;;;;5022308;28;20640;-67
2021/08/29 07:59:12;;;;;;;4.50;3.17;;;;;;;;;;5020122;28;20069;-66
2021/08/29 08:01:38;;;;;;;4.27;2.80;;;;;;;;;;5017069;28;20061;-66
2021/08/29 08:04:04;;;;;;;4.70;3.10;;;;;;;;;;5021179;28;20268;-65
2021/08/29 08:06:29;;;;;;;4.37;2.97;;;;;;;;;;5015134;28;20076;-66
2021/08/29 08:08:54;;;;;;;4.47;3.05;;;;;;;;;;5018089;28;20293;-64
2021/08/29 08:11:20;;;;;;;4.15;3.05;;;;;;;;;;5019003;28;20059;-65
2021/08/29 08:13:45;;;;;;;4.90;2.80;;;;;;;;;;5019390;28;20013;-61
2021/08/29 08:16:10;;;;;;;4.30;3.13;;;;;;;;;;5013956;28;20511;-61
2021/08/29 08:18:35;;;;;;;4.40;3.03;;;;;;;;;;5016735;28;20030;-61
2021/08/29 08:21:00;;;;;;;4.95;3.35;;;;;;;;;;5023613;28;20911;-61
2021/08/29 08:23:26;;;;;;;4.57;3.10;;;;;;;;;;5027916;28;20029;-61
2021/08/29 08:25:51;;;;;;;7.85;3.78;;;;;;;;;;5019214;28;20025;-62
2021/08/29 08:28:16;;;;;;;7.67;3.67;;;;;;;;;;5016943;28;20165;-61
2021/08/29 08:30:41;;;;;;;7.20;3.40;;;;;;;;;;5022191;28;20637;-62
2021/08/29 08:33:06;;;;;;;6.10;3.70;;;;;;;;;;5024367;28;20018;-61
2021/08/29 08:35:31;;;;;;;7.40;3.70;;;;;;;;;;5024809;28;20280;-62
2021/08/29 08:37:57;;;;;;;7.05;4.32;;;;;;;;;;5022154;28;20328;-62
2021/08/29 08:40:22;;;;;;;7.72;4.03;;;;;;;;;;5023377;28;20045;-63
2021/08/29 08:42:47;;;;;;;7.35;4.47;;;;;;;;;;5021670;28;20113;-62
2021/08/29 08:45:13;;;;;;;5.20;3.72;;;;;;;;;;5022807;28;20044;-62
2021/08/29 08:47:41;;;;;;;7.10;4.50;;;;;;;;;;5022242;28;20589;-62
2021/08/29 08:50:08;;;;;;;7.38;4.45;;;;;;;;;;5027740;28;20022;-63
2021/08/29 08:52:33;;;;;;;5.85;3.85;;;;;;;;;;5022964;28;20029;-62
2021/08/29 08:55:00;;;;;;;10.50;4.80;;;;;;;;;;5020560;28;20064;-61
2021/08/29 08:57:25;;;;;;;6.18;4.63;;;;;;;;;;5026203;28;20034;-62
2021/08/29 08:59:50;;;;;;;7.10;4.80;;;;;;;;;;5022617;28;20020;-62
2021/08/29 09:02:19;;;;;;;6.53;4.20;;;;;;;;;;5015709;28;20025;-62
2021/08/29 09:04:44;;;;;;;6.32;4.30;;;;;;;;;;5015507;28;20268;-62
2021/08/29 09:07:10;;;;;;;7.72;4.50;;;;;;;;;;5018794;28;20029;-62
2021/08/29 09:09:35;;;;;;;6.47;3.78;;;;;;;;;;5023635;28;20048;-62
2021/08/29 09:12:00;;;;;;;5.47;3.88;;;;;;;;;;5024710;28;20031;-63
2021/08/29 09:14:39;;;;;;;6.60;4.25;;;;;;;;;;5024693;28;20021;-62
2021/08/29 09:17:20;;;;;;;6.65;3.78;;;;;;;;;;5019243;28;20037;-62
2021/08/29 09:19:45;;;;;;;6.57;4.97;;;;;;;;;;5026611;28;20036;-62
2021/08/29 09:22:13;;;;;;;6.80;4.40;;;;;;;;;;5015613;28;20401;-64
2021/08/29 09:24:38;;;;;;;6.05;4.25;;;;;;;;;;5028264;28;20280;-62
2021/08/29 09:27:03;;;;;;;8.25;5.32;;;;;;;;;;5021536;28;20450;-62
2021/08/29 09:29:28;;;;;;;7.40;4.75;;;;;;;;;;5020638;28;20030;-61
2021/08/29 09:31:54;;;;;;;8.27;5.82;;;;;;;;;;5023885;28;20040;-62
2021/08/29 09:34:20;;;;;;;8.60;5.90;;;;;;;;;;5023926;28;20018;-61
2021/08/29 09:36:45;;;;;;;7.53;5.15;;;;;;;;;;5024135;28;20071;-62
2021/08/29 09:39:14;;;;;;;8.18;5.30;;;;;;;;;;5024487;28;20049;-62
2021/08/29 09:41:40;;;;;;;7.13;5.40;;;;;;;;;;5025800;28;20516;-61
2021/08/29 09:44:06;;;;;;;7.65;4.70;;;;;;;;;;5023600;28;20021;-63
2021/08/29 09:46:31;;;;;;;7.55;5.50;;;;;;;;;;5029297;28;20036;-62
2021/08/29 09:48:57;;;;;;;7.50;4.63;;;;;;;;;;5023452;28;20030;-63
2021/08/29 09:51:24;;;;;;;8.07;4.90;;;;;;;;;;5028727;28;20037;-62
2021/08/29 09:53:49;;;;;;;7.28;4.95;;;;;;;;;;5030956;28;20477;-62
2021/08/29 09:56:21;;;;;;;6.85;4.78;;;;;;;;;;5031688;28;20041;-60
2021/08/29 09:58:47;;;;;;;7.20;4.38;;;;;;;;;;5023317;28;20025;-62
2021/08/29 10:01:18;;;;;;;7.43;4.68;;;;;;;;;;5023088;28;20021;-61
2021/08/29 10:03:45;;;;;;;6.60;4.45;;;;;;;;;;5023724;28;20075;-62
2021/08/29 10:06:21;;;;;;;6.18;4.63;;;;;;;;;;5027493;28;20028;-63
2021/08/29 10:08:47;;;;;;;6.20;4.25;;;;;;;;;;5029614;28;20033;-62
2021/08/29 10:11:14;;;;;;;6.85;4.50;;;;;;;;;;5025406;28;20109;-63
2021/08/29 10:13:40;;;;;;;7.45;4.68;;;;;;;;;;5027392;28;20029;-63
2021/08/29 10:16:06;;;;;;;7.20;4.43;;;;;;;;;;5026941;28;20033;-63
2021/08/29 10:18:38;;;;;;;5.57;3.97;;;;;;;;;;5030363;28;20021;-63
2021/08/29 10:21:04;;;;;;;7.95;4.22;;;;;;;;;;5030595;28;20113;-61
2021/08/29 10:23:30;;;;;;;6.68;4.53;;;;;;;;;;5025878;28;20108;-62
2021/08/29 10:25:56;;;;;;;5.00;3.75;;;;;;;;;;5019448;28;20418;-62
2021/08/29 10:28:24;;;;;;;7.10;3.92;;;;;;;;;;5025047;28;20173;-62
2021/08/29 10:30:53;;;;;;;6.00;3.58;;;;;;;;;;5026500;28;20021;-62
2021/08/29 10:33:19;;;;;;;5.93;3.50;;;;;;;;;;5023604;28;20033;-63
2021/08/29 10:35:45;;;;;;;5.97;3.88;;;;;;;;;;5020615;28;20045;-62
2021/08/29 10:38:10;;;;;;;5.22;3.63;;;;;;;;;;5025125;28;20040;-63
2021/08/29 10:40:36;;;;;;;4.75;3.33;;;;;;;;;;5028644;28;20132;-63
2021/08/29 10:43:01;;;;;;;4.53;3.22;;;;;;;;;;5022160;28;20447;-62
2021/08/29 10:45:26;;;;;;;5.18;3.15;;;;;;;;;;5028451;28;20055;-64
2021/08/29 10:47:52;;;;;;;5.72;2.80;;;;;;;;;;5025743;28;20100;-63
2021/08/29 10:50:18;;;;;;;4.88;2.53;;;;;;;;;;5028693;28;20021;-64
2021/08/29 10:52:44;;;;;;;5.80;2.22;;;;;;;;;;5027924;28;20033;-63
2021/08/29 10:55:10;;;;;;;3.90;2.42;;;;;;;;;;5016246;28;20040;-63
2021/08/29 10:57:36;;;;;;;2.75;2.00;;;;;;;;;;5027655;28;20033;-63
2021/08/29 11:00:05;;;;;;;2.35;1.63;;;;;;;;;;5029390;28;20029;-63
2021/08/29 11:02:39;;;;;;;2.00;1.63;;;;;;;;;;5027087;28;20029;-63
2021/08/29 11:05:05;;;;;;;4.85;1.73;;;;;;;;;;5028424;28;20029;-64
2021/08/29 11:07:47;;;;;;;3.97;1.67;;;;;;;;;;5026255;28;20421;-62
2021/08/29 11:10:32;;;;;;;2.47;1.70;;;;;;;;;;5019828;28;20013;-63
2021/08/29 11:12:57;;;;;;;2.45;1.60;;;;;;;;;;5026853;28;20387;-63
2021/08/29 11:15:36;;;;;;;2.63;1.50;;;;;;;;;;5029139;28;20051;-63
2021/08/29 11:18:01;;;;;;;1.73;1.17;;;;;;;;;;5024005;28;20030;-62
2021/08/29 11:20:32;;;;;;;2.03;1.20;;;;;;;;;;5028661;28;20030;-64
2021/08/29 11:22:57;;;;;;;2.00;1.40;;;;;;;;;;5020101;28;20083;-63
2021/08/29 11:25:23;;;;;;;2.05;1.20;;;;;;;;;;5027996;28;20056;-63
2021/08/29 11:27:50;;;;;;;1.98;1.10;;;;;;;;;;5020686;28;20533;-62
2021/08/29 11:30:21;;;;;;;3.17;1.10;;;;;;;;;;5026237;28;20028;-62
2021/08/29 11:32:46;;;;;;;1.52;1.00;;;;;;;;;;5028223;28;20064;-62
2021/08/29 11:35:16;;;;;;;2.30;1.13;;;;;;;;;;5029407;28;20457;-63
2021/08/29 11:37:43;;;;;;;2.10;1.20;;;;;;;;;;5029339;28;20033;-63
2021/08/29 11:40:10;;;;;;;1.83;1.23;;;;;;;;;;5028668;28;20071;-63
2021/08/29 11:42:36;;;;;;;2.45;1.45;;;;;;;;;;5018978;28;20040;-64
2021/08/29 11:45:02;;;;;;;1.58;1.10;;;;;;;;;;5026565;28;20079;-63
2021/08/29 11:47:38;;;;;;;3.03;1.30;;;;;;;;;;5024684;28;20017;-64
2021/08/29 11:50:04;;;;;;;2.05;1.20;;;;;;;;;;5025471;28;20030;-63
2021/08/29 11:52:30;;;;;;;1.92;1.30;;;;;;;;;;5028069;28;20049;-63
2021/08/29 11:55:12;;;;;;;3.83;1.40;;;;;;;;;;5027792;28;20072;-63
2021/08/29 11:57:46;;;;;;;2.25;1.40;;;;;;;;;;5020101;28;20065;-63
2021/08/29 12:00:12;;;;;;;2.38;1.40;;;;;;;;;;5024113;28;20034;-64
2021/08/29 12:02:37;;;;;;;2.17;1.50;;;;;;;;;;5026661;28;20048;-63
2021/08/29 12:05:13;;;;;;;2.08;1.27;;;;;;;;;;5023490;28;20027;-63
2021/08/29 12:07:42;;;;;;;3.03;1.45;;;;;;;;;;5022823;28;20052;-62
2021/08/29 12:10:08;;;;;;;2.72;1.20;;;;;;;;;;5022512;28;20022;-63
2021/08/29 12:12:34;;;;;;;1.90;1.42;;;;;;;;;;5025299;28;20033;-63
2021/08/29 12:15:00;;;;;;;2.67;1.55;;;;;;;;;;5021642;28;20083;-63
2021/08/29 12:17:27;;;;;;;2.28;1.58;;;;;;;;;;5025224;28;20037;-63
2021/08/29 12:19:52;;;;;;;4.32;1.90;;;;;;;;;;5027973;28;20878;-63
2021/08/29 12:22:18;;;;;;;2.80;1.70;;;;;;;;;;5022049;28;20377;-61
2021/08/29 12:24:43;;;;;;;2.33;1.70;;;;;;;;;;5021536;28;20037;-63
2021/08/29 12:27:13;;;;;;;2.53;1.60;;;;;;;;;;5019556;28;20038;-62
2021/08/29 12:29:50;;;;;;;2.10;1.55;;;;;;;;;;5026354;28;20022;-64
2021/08/29 12:32:23;;;;;;;1.95;1.20;;;;;;;;;;5019264;28;20113;-62
2021/08/29 12:34:59;;;;;;;2.95;1.65;;;;;;;;;;5022261;28;20059;-61
2021/08/29 12:37:25;;;;;;;1.60;1.20;;;;;;;;;;5021241;28;20033;-61
2021/08/29 12:39:59;;;;;;;2.28;1.77;;;;;;;;;;5024397;28;20045;-63
2021/08/29 12:42:25;;;;;;;2.35;1.60;;;;;;;;;;5027035;28;20508;-63
2021/08/29 12:44:51;;;;;;;1.95;1.40;;;;;;;;;;5027046;28;20021;-62
2021/08/29 12:47:16;;;;;;;2.47;1.35;;;;;;;;;;5017484;28;20052;-65
2021/08/29 12:49:42;;;;;;;2.20;1.17;;;;;;;;;;5016345;28;20017;-64
2021/08/29 12:52:11;;;;;;;1.83;0.98;;;;;;;;;;5028088;28;20063;-62
2021/08/29 12:54:37;;;;;;;2.10;1.00;;;;;;;;;;5025766;28;20036;-63
2021/08/29 12:57:05;;;;;;;1.95;1.30;;;;;;;;;;5022435;28;20045;-62
2021/08/29 12:59:31;;;;;;;2.40;1.30;;;;;;;;;;5022172;28;20049;-63
2021/08/29 13:01:57;;;;;;;1.52;0.93;;;;;;;;;;5024156;28;20053;-62
2021/08/29 13:04:28;;;;;;;1.45;0.90;;;;;;;;;;5018457;28;20102;-63
2021/08/29 13:07:07;;;;;;;1.00;0.75;;;;;;;;;;5020661;28;20076;-63
2021/08/29 13:09:34;;;;;;;1.50;0.75;;;;;;;;;;5019116;28;20101;-64
2021/08/29 13:12:02;;;;;;;0.98;0.70;;;;;;;;;;5020179;28;20192;-63
2021/08/29 13:14:28;;;;;;;1.00;0.70;;;;;;;;;;5024992;28;20057;-64
2021/08/29 13:16:54;;;;;;;1.20;0.90;;;;;;;;;;5025107;28;20489;-64
2021/08/29 13:19:24;;;;;;;2.97;0.90;;;;;;;;;;5022187;28;20021;-63
2021/08/29 13:21:49;;;;;;;;;;;;;;;;;;5024996;28;20512;-63
2021/08/29 13:24:26;;;;;;;2.35;0.55;;;;;;;;;;5023522;28;20384;-64
2021/08/29 13:26:52;;;;;;;1.33;0.82;;;;;;;;;;5025990;28;20021;-63
2021/08/29 13:29:17;;;;;;;1.08;0.75;;;;;;;;;;5021605;28;20032;-62
2021/08/29 13:31:42;;;;;;;0.85;0.70;;;;;;;;;;5017703;28;20513;-64
2021/08/29 13:34:08;;;;;;;1.35;0.90;;;;;;;;;;5026520;28;20040;-64
2021/08/29 13:36:33;;;;;;;1.15;0.75;;;;;;;;;;5026005;28;20485;-63
2021/08/29 13:38:59;;;;;;;1.88;0.70;;;;;;;;;;5028853;28;20096;-63
2021/08/29 13:41:25;;;;;;;1.23;0.77;;;;;;;;;;5023657;28;20056;-63
2021/08/29 13:43:58;;;;;;;1.65;0.70;;;;;;;;;;5027243;28;20457;-63
2021/08/29 13:46:23;;;;;;;1.13;0.80;;;;;;;;;;5024597;28;20026;-63
2021/08/29 13:48:48;;;;;;;1.25;0.80;;;;;;;;;;5021549;28;20045;-63
2021/08/29 13:51:14;;;;;;;3.00;0.80;;;;;;;;;;5025741;28;20033;-63
2021/08/29 13:53:39;;;;;;;0.90;0.70;;;;;;;;;;5022819;28;20787;-64
2021/08/29 13:56:05;;;;;;;1.85;1.20;;;;;;;;;;5026803;28;20033;-63
2021/08/29 13:58:30;;;;;;;4.07;1.13;;;;;;;;;;5027859;28;20025;-63
2021/08/29 14:00:56;;;;;;;1.38;0.90;;;;;;;;;;5023161;28;20026;-62
2021/08/29 14:03:22;;;;;;;1.10;0.70;;;;;;;;;;5022256;28;20056;-63
2021/08/29 14:05:47;;;;;;;0.80;0.70;;;;;;;;;;5024900;28;20033;-63
2021/08/29 14:08:12;;;;;;;1.27;0.80;;;;;;;;;;5029838;28;20112;-63
2021/08/29 14:10:38;;;;;;;2.27;0.87;;;;;;;;;;5029657;28;20104;-63
2021/08/29 14:13:03;;;;;;;1.53;0.70;;;;;;;;;;5025046;28;20282;-63
2021/08/29 14:15:28;;;;;;;1.17;0.80;;;;;;;;;;5024392;28;20368;-64
2021/08/29 14:17:54;;;;;;;1.25;0.77;;;;;;;;;;5024966;28;20334;-64
2021/08/29 14:20:20;;;;;;;1.13;0.70;;;;;;;;;;5024121;28;20025;-63
2021/08/29 14:22:45;;;;;;;0.60;0.60;;;;;;;;;;5026835;28;20026;-64
2021/08/29 14:25:13;;;;;;;0.88;0.57;;;;;;;;;;5027837;28;20028;-64
2021/08/29 14:27:39;;;;;;;1.23;0.80;;;;;;;;;;5027092;28;20152;-64
2021/08/29 14:30:04;;;;;;;0.60;0.60;;;;;;;;;;5028446;28;20121;-64
2021/08/29 14:32:29;;;;;;;1.60;1.00;;;;;;;;;;5025684;28;20056;-63
2021/08/29 14:34:59;;;;;;;1.10;0.73;;;;;;;;;;5025553;28;20405;-63